createdAt,value
2023-04-28T00:09:45.078Z,54.80
2023-04-28T00:19:50.078Z,49.90
2023-04-28T00:29:54.765Z,33.90
2023-04-28T00:39:58.411Z,31.70
2023-04-28T00:50:06.838Z,40.80
2023-04-28T01:00:12.135Z,42.00
2023-04-28T01:10:15.973Z,51.80
2023-04-28T01:20:19.343Z,53.90
2023-04-28T01:30:23.091Z,38.00
2023-04-28T01:40:27.169Z,42.40
2023-04-28T01:50:31.022Z,57.80
2023-04-28T02:00:35.493Z,57.80
2023-04-28T02:10:39.268Z,56.50
2023-04-28T02:20:47.074Z,54.50
2023-04-28T02:30:51.145Z,59.50
2023-04-28T02:40:58.374Z,45.50
2023-04-28T02:51:02.130Z,39.00
2023-04-28T03:01:09.597Z,44.70
2023-04-28T03:11:13.475Z,51.40
2023-04-28T03:21:20.561Z,43.80
2023-04-28T03:31:24.201Z,47.20
2023-04-28T03:41:27.790Z,47.00
2023-04-28T03:51:31.241Z,43.30
2023-04-28T04:01:35.477Z,38.50
2023-04-28T04:11:39.153Z,49.60
2023-04-28T04:21:46.654Z,51.10
2023-04-28T04:31:53.520Z,49.00
2023-04-28T04:41:57.333Z,54.40
2023-04-28T04:52:01.589Z,50.00
2023-04-28T05:02:05.256Z,49.90
2023-04-28T05:12:08.521Z,39.20
2023-04-28T05:22:12.480Z,33.50
2023-04-28T05:32:16.352Z,30.20
2023-04-28T05:42:23.521Z,30.50
2023-04-28T05:52:27.802Z,27.00
2023-04-28T06:02:31.786Z,24.40
2023-04-28T06:12:35.988Z,24.80
2023-04-28T06:22:39.653Z,22.40
2023-04-28T06:32:46.391Z,21.10
2023-04-28T06:42:50.517Z,19.70
2023-04-28T06:52:54.144Z,14.00
2023-04-28T07:02:57.831Z,13.40
2023-04-28T07:13:26.174Z,13.70
2023-04-28T07:23:30.053Z,14.50
2023-04-28T07:43:37.305Z,12.50
2023-04-28T08:03:48.308Z,9.20
2023-04-28T08:13:52.744Z,7.70
2023-04-28T08:23:56.646Z,7.50
2023-04-28T08:34:00.497Z,7.70
2023-04-28T08:44:07.288Z,6.50
2023-04-28T08:54:25.435Z,8.00
2023-04-28T09:04:30.602Z,8.50
2023-04-28T09:14:36.023Z,7.70
2023-04-28T09:24:41.109Z,8.00
2023-04-28T09:34:44.842Z,6.80
2023-04-28T09:44:53.182Z,8.70
2023-04-28T09:54:58.239Z,7.30
2023-04-28T10:05:03.276Z,8.90
2023-04-28T10:15:09.471Z,8.60
2023-04-28T10:25:25.229Z,6.70
2023-04-28T10:35:43.497Z,7.70
2023-04-28T10:46:08.436Z,7.00
2023-04-28T10:56:14.746Z,7.10
2023-04-28T11:06:26.222Z,5.90
2023-04-28T11:16:48.269Z,6.60
2023-04-28T11:26:52.813Z,5.30
2023-04-28T11:36:56.977Z,5.40
2023-04-28T11:47:03.690Z,5.60
2023-04-28T11:57:17.150Z,5.40
2023-04-28T12:07:24.839Z,6.30
2023-04-28T12:17:30.259Z,6.20
2023-04-28T12:27:36.198Z,5.90
2023-04-28T12:37:42.861Z,5.40
2023-04-28T12:47:46.796Z,5.60
2023-04-28T12:57:51.194Z,5.30
2023-04-28T13:07:54.409Z,5.50
2023-04-28T13:17:58.092Z,5.70
2023-04-28T13:28:02.376Z,5.30
2023-04-28T13:38:06.767Z,6.50
2023-04-28T13:48:11.651Z,5.20
2023-04-28T13:58:18.165Z,5.30
2023-04-28T14:08:23.232Z,4.90
2023-04-28T14:18:33.274Z,5.50
2023-04-28T14:28:37.203Z,5.20
2023-04-28T14:38:40.813Z,7.00
2023-04-28T14:48:45.074Z,6.00
2023-04-28T14:58:49.529Z,4.80
2023-04-28T15:08:52.699Z,4.70
2023-04-28T15:18:57.219Z,5.40
2023-04-28T15:29:00.778Z,3.90
2023-04-28T15:39:09.892Z,4.80
2023-04-28T15:49:13.905Z,5.70
2023-04-28T15:59:18.464Z,6.00
2023-04-28T16:09:22.455Z,4.40
2023-04-28T16:19:26.492Z,4.90
2023-04-28T16:29:30.715Z,5.00
2023-04-28T16:39:34.621Z,4.70
2023-04-28T16:49:38.280Z,5.40
2023-04-28T16:59:41.865Z,11.50
2023-04-28T17:10:10.479Z,7.90
2023-04-28T17:20:18.948Z,6.80
2023-04-28T17:30:23.881Z,6.90
2023-04-28T17:40:27.475Z,9.70
2023-04-28T17:50:31.191Z,13.10
2023-04-28T18:00:34.907Z,20.60
2023-04-28T18:10:38.782Z,12.30
2023-04-28T18:20:42.249Z,12.90
2023-04-28T18:30:45.673Z,11.80
2023-04-28T18:40:55.356Z,10.50
2023-04-28T18:50:59.459Z,13.00
2023-04-28T19:01:03.071Z,10.50
2023-04-28T19:11:06.294Z,11.50
2023-04-28T19:21:13.653Z,12.70
2023-04-28T19:31:17.328Z,13.00
2023-04-28T19:51:24.441Z,12.90
2023-04-28T20:11:32.097Z,13.60
2023-04-28T20:21:36.429Z,13.60
2023-04-28T20:31:40.278Z,14.60
2023-04-28T20:41:48.063Z,17.80
2023-04-28T20:51:51.447Z,14.20
2023-04-28T21:01:55.297Z,13.40
2023-04-28T21:11:58.895Z,13.40
2023-04-28T21:22:03.780Z,13.20
2023-04-28T21:32:08.093Z,12.30
2023-04-28T21:42:11.874Z,10.70
2023-04-28T21:52:15.742Z,11.10
2023-04-28T22:02:19.717Z,10.90
2023-04-28T22:12:23.767Z,10.90
2023-04-28T22:22:27.335Z,9.70
2023-04-28T22:32:31.426Z,10.70
2023-04-28T22:52:39.775Z,12.30
2023-04-28T23:02:44.459Z,12.30
2023-04-28T23:12:48.273Z,15.20
2023-04-28T23:22:52.092Z,15.10
2023-04-28T23:32:59.728Z,15.50
2023-04-28T23:43:06.684Z,16.10
2023-04-28T23:53:10.479Z,19.80
